Time;durP1;ratioP1;P1;durP2;ratioP2;P2;SDS_P1;SDS_P2;PMS_P1;PMS_P2;Temp;Humidity;BMP_temperature;BMP_pressure;BME280_temperature;BME280_humidity;BME280_pressure;Samples;Min_cycle;Max_cycle;Signal;HPM_P1;HPM_P2
2023/09/21 07:37:32;;;;;;;14.80;6.63;;;18.70;99.90;;;;;;6155088;23;20184;-80
2023/09/21 07:40:07;;;;;;;12.70;6.47;;;18.70;99.90;;;;;;6156226;23;20176;-82
2023/09/21 07:42:37;;;;;;;9.07;5.90;;;18.90;99.90;;;;;;6155438;23;20176;-77
2023/09/21 07:45:06;;;;;;;11.60;6.33;;;19.00;99.90;;;;;;6155519;23;20165;-78
2023/09/21 07:47:35;;;;;;;8.63;6.20;;;19.20;99.90;;;;;;6154809;23;20175;-80
2023/09/21 07:50:03;;;;;;;10.50;6.43;;;19.00;99.90;;;;;;6129180;23;20207;-82
2023/09/21 07:52:39;;;;;;;10.77;6.10;;;19.30;99.90;;;;;;6156275;23;20188;-81
2023/09/21 07:55:10;;;;;;;12.67;6.03;;;19.30;99.90;;;;;;6156170;23;20514;-80
2023/09/21 07:57:47;;;;;;;12.43;6.57;;;19.60;99.90;;;;;;6105380;23;20172;-82
2023/09/21 08:00:15;;;;;;;10.63;5.87;;;19.70;99.90;;;;;;6130377;23;20181;-79
2023/09/21 08:02:44;;;;;;;15.13;6.10;;;20.10;99.90;;;;;;6155744;23;20172;-81
2023/09/21 08:05:12;;;;;;;8.53;6.27;;;19.90;99.90;;;;;;6128514;23;20251;-79
2023/09/21 08:07:42;;;;;;;10.63;6.40;;;20.00;99.90;;;;;;6155211;23;20168;-80
2023/09/21 08:10:18;;;;;;;11.30;5.77;;;20.10;99.90;;;;;;6154556;23;20250;-82
2023/09/21 08:12:47;;;;;;;13.30;6.83;;;20.30;99.90;;;;;;6129729;23;20165;-81
2023/09/21 08:15:21;;;;;;;12.97;6.13;;;20.50;99.90;;;;;;6129129;23;20180;-81
2023/09/21 08:17:54;;;;;;;9.77;5.50;;;21.10;99.90;;;;;;6104416;23;20175;-80
2023/09/21 08:20:24;;;;;;;10.20;5.77;;;22.30;99.90;;;;;;6128108;23;20199;-79
2023/09/21 08:22:55;;;;;;;9.17;5.37;;;23.00;99.90;;;;;;6153602;23;20240;-82
2023/09/21 08:25:28;;;;;;;7.40;5.40;;;23.50;99.90;;;;;;6154550;23;20630;-81
2023/09/21 08:28:05;;;;;;;8.10;5.30;;;24.00;99.90;;;;;;6154833;23;20168;-80
2023/09/21 08:30:34;;;;;;;7.73;5.30;;;24.60;99.90;;;;;;6154188;23;20217;-79
2023/09/21 08:33:07;;;;;;;9.20;5.53;;;24.70;99.90;;;;;;6129347;23;20168;-79
2023/09/21 08:35:35;;;;;;;10.48;5.05;;;25.00;99.90;;;;;;6128514;23;20662;-79
2023/09/21 08:38:03;;;;;;;8.33;5.10;;;25.30;99.90;;;;;;6128983;23;20673;-80
2023/09/21 08:40:37;;;;;;;7.85;5.00;;;25.40;99.90;;;;;;6128022;23;20532;-81
2023/09/21 08:43:06;;;;;;;7.35;5.10;;;25.60;99.90;;;;;;6154568;23;20168;-82
2023/09/21 08:45:37;;;;;;;29.83;7.18;;;25.80;99.90;;;;;;6104575;23;20185;-80
2023/09/21 08:48:12;;;;;;;11.35;5.45;;;25.90;99.90;;;;;;6128549;23;20168;-80
2023/09/21 08:50:44;;;;;;;8.65;5.10;;;26.00;99.90;;;;;;6154025;23;20188;-81
2023/09/21 08:53:16;;;;;;;8.82;4.95;;;26.30;99.90;;;;;;6104125;23;20227;-83
2023/09/21 08:55:52;;;;;;;7.07;4.80;;;26.20;99.90;;;;;;6128195;23;20558;-82
2023/09/21 08:58:33;;;;;;;10.35;5.25;;;26.50;99.90;;;;;;6103778;23;20197;-83
2023/09/21 09:01:14;;;;;;;8.35;4.90;;;26.60;99.90;;;;;;6152815;23;20262;-81
2023/09/21 09:03:47;;;;;;;8.27;4.88;;;26.80;99.90;;;;;;6127980;23;20204;-81
2023/09/21 09:06:18;;;;;;;11.10;5.05;;;26.80;99.90;;;;;;6153798;23;20207;-83
2023/09/21 09:08:48;;;;;;;9.32;4.63;;;27.00;99.90;;;;;;6104092;23;20183;-83
2023/09/21 09:11:35;;;;;;;8.82;4.57;;;27.40;99.90;;;;;;6105510;23;20179;-83
2023/09/21 09:14:23;;;;;;;6.05;4.15;;;27.40;99.90;;;;;;6106206;23;20176;-83
2023/09/21 09:16:55;;;;;;;6.53;4.20;;;27.80;99.90;;;;;;6105200;23;20183;-83
2023/09/21 09:19:27;;;;;;;6.55;3.80;;;27.40;99.90;;;;;;6154739;23;20191;-81
2023/09/21 09:21:58;;;;;;;6.43;4.07;;;27.30;99.90;;;;;;6155570;23;20544;-82
2023/09/21 09:24:33;;;;;;;7.13;4.13;;;27.50;99.90;;;;;;6129478;23;20168;-83
2023/09/21 09:27:01;;;;;;;9.00;4.25;;;27.70;99.90;;;;;;6128276;23;20508;-83
2023/09/21 09:29:46;;;;;;;6.47;3.40;;;28.10;99.90;;;;;;6154181;23;20168;-82
2023/09/21 09:32:18;;;;;;;8.85;3.50;;;28.60;99.90;;;;;;6129251;23;20168;-82
2023/09/21 09:34:47;;;;;;;9.05;4.28;;;29.10;99.90;;;;;;6127532;23;20172;-80
2023/09/21 09:37:16;;;;;;;6.18;3.88;;;29.30;99.90;;;;;;6153702;23;20271;-81
2023/09/21 09:39:48;;;;;;;7.88;3.40;;;29.70;99.90;;;;;;6127683;23;20196;-81
2023/09/21 09:42:20;;;;;;;8.13;3.67;;;29.90;99.90;;;;;;6152901;23;20239;-81
2023/09/21 09:44:50;;;;;;;5.43;3.88;;;29.90;99.90;;;;;;6128243;23;20195;-79
2023/09/21 09:47:25;;;;;;;6.70;3.90;;;29.90;99.90;;;;;;6128217;23;20568;-80
2023/09/21 09:49:55;;;;;;;8.75;3.72;;;30.20;99.90;;;;;;6127670;23;20168;-82
2023/09/21 09:52:29;;;;;;;6.15;3.67;;;30.10;99.90;;;;;;6154498;23;20184;-79
2023/09/21 09:54:59;;;;;;;5.85;3.60;;;30.00;99.90;;;;;;6154103;23;20643;-80
2023/09/21 09:57:31;;;;;;;5.53;3.42;;;30.50;99.90;;;;;;6153970;23;20263;-79
2023/09/21 10:00:13;;;;;;;7.90;3.28;;;30.80;99.90;;;;;;6127463;23;20640;-78
2023/09/21 10:02:48;;;;;;;8.85;3.75;;;30.40;99.90;;;;;;6128668;23;20171;-80
2023/09/21 10:05:20;;;;;;;5.43;3.00;;;30.70;99.90;;;;;;6128919;23;20157;-81
2023/09/21 10:07:54;;;;;;;5.10;2.97;;;30.90;99.90;;;;;;6128398;23;20604;-81
2023/09/21 10:13:32;;;;;;;7.95;3.35;;;31.60;99.90;;;;;;6190103;23;20292;-86
2023/09/21 10:16:27;;;;;;;4.40;3.38;;;31.80;99.90;;;;;;6176189;23;20626;-87
2023/09/21 10:40:32;;;;;;;3.72;3.00;;;32.50;99.90;;;;;;6056625;23;20208;-84
2023/09/21 10:47:55;;;;;;;4.93;3.33;;;33.10;99.20;;;;;;5943085;24;20213;-87
2023/09/21 11:20:17;;;;;;;3.20;2.63;;;34.40;93.10;;;;;;6168779;23;20207;-81
2023/09/21 11:23:21;;;;;;;7.38;3.38;;;34.50;93.20;;;;;;6036246;23;20226;-84
2023/09/21 11:26:34;;;;;;;;;;;;;;;;;;;;;
2023/09/21 11:30:14;;;;;;;4.75;2.83;;;35.00;91.50;;;;;;6049074;23;20183;-83
2023/09/21 12:02:03;;;;;;;3.15;2.30;;;37.10;77.10;;;;;;6179742;23;20168;-88
2023/09/21 12:04:43;;;;;;;5.40;2.50;;;36.80;78.10;;;;;;6158503;23;20551;-85
2023/09/21 12:07:16;;;;;;;6.60;2.60;;;37.10;75.70;;;;;;6158675;23;20522;-83
2023/09/21 12:10:33;;;;;;;6.80;2.15;;;37.10;75.50;;;;;;6155274;23;20176;-86
2023/09/21 12:13:20;;;;;;;;;;;;;;;;;;;;;
2023/09/21 12:25:11;;;;;;;4.47;1.90;;;37.90;71.20;;;;;;6062388;23;20173;-87
2023/09/21 12:27:51;;;;;;;3.20;2.00;;;37.50;69.30;;;;;;6040439;23;20633;-86
2023/09/21 12:40:58;;;;;;;;;;;;;;;;;;;;;
2023/09/21 12:45:32;;;;;;;;;;;;;;;;;;;;;
2023/09/21 12:48:51;;;;;;;3.15;2.00;;;36.30;69.50;;;;;;5754533;24;20174;-83
2023/09/21 13:04:50;;;;;;;5.63;2.13;;;32.40;78.70;;;;;;6177440;23;20207;-87
2023/09/21 17:27:53;;;;;;;5.90;2.60;;;22.80;99.90;;;;;;6164889;22;20574;-83
2023/09/21 17:30:30;;;;;;;3.90;2.40;;;22.80;99.90;;;;;;6129387;23;20172;-82
2023/09/21 17:33:04;;;;;;;5.70;2.43;;;22.70;99.90;;;;;;6151267;23;20493;-81
2023/09/21 17:35:51;;;;;;;6.23;2.70;;;22.60;99.90;;;;;;6147368;23;20196;-83
2023/09/21 17:38:36;;;;;;;7.37;2.93;;;22.60;99.90;;;;;;6123735;23;20247;-82
2023/09/21 17:41:15;;;;;;;5.50;2.80;;;22.40;99.90;;;;;;6100223;23;20173;-82
2023/09/21 17:43:48;;;;;;;4.30;2.47;;;22.30;99.90;;;;;;6123320;23;20171;-82
2023/09/21 17:46:19;;;;;;;5.00;2.50;;;22.20;99.90;;;;;;6124706;23;20308;-82
2023/09/21 17:48:53;;;;;;;24.73;7.03;;;22.10;99.90;;;;;;6125038;23;20153;-80
2023/09/21 17:51:27;;;;;;;9.00;3.40;;;22.20;99.90;;;;;;6122064;23;20192;-80
2023/09/21 17:54:02;;;;;;;10.17;3.13;;;22.00;99.90;;;;;;6121578;23;20476;-81
2023/09/21 17:56:38;;;;;;;8.43;2.77;;;22.00;99.90;;;;;;6123107;23;20165;-83
2023/09/21 17:59:25;;;;;;;6.90;2.57;;;22.00;99.90;;;;;;6122296;23;20522;-84
2023/09/21 18:01:55;;;;;;;5.63;2.87;;;22.10;99.90;;;;;;6122420;23;20228;-82
2023/09/21 18:04:32;;;;;;;6.40;2.67;;;21.90;99.90;;;;;;6122381;23;20200;-83
2023/09/21 18:07:20;;;;;;;4.83;2.40;;;21.80;99.90;;;;;;6147675;23;20276;-82
2023/09/21 18:09:52;;;;;;;5.17;2.80;;;21.80;99.90;;;;;;6074996;23;20183;-82
2023/09/21 18:12:22;;;;;;;5.60;2.40;;;21.80;99.90;;;;;;6124226;23;20171;-81
2023/09/21 18:14:50;;;;;;;5.87;2.77;;;21.70;99.90;;;;;;6124327;23;20173;-82
2023/09/21 18:17:22;;;;;;;6.00;3.00;;;21.70;99.90;;;;;;6124120;23;20548;-82
2023/09/21 18:19:54;;;;;;;4.57;2.60;;;21.60;99.90;;;;;;6122657;23;20192;-83
2023/09/21 18:22:28;;;;;;;3.90;2.30;;;21.60;99.90;;;;;;6123081;23;20721;-81
2023/09/21 20:57:16;;;;;;;8.80;4.00;;;19.20;99.90;;;;;;6155342;23;20188;-80
2023/09/21 20:59:47;;;;;;;5.90;3.73;;;19.10;99.90;;;;;;6188276;23;20681;-80
2023/09/21 21:02:15;;;;;;;5.97;3.40;;;19.20;99.90;;;;;;6213930;23;20578;-80
2023/09/21 21:04:48;;;;;;;6.30;3.60;;;19.10;99.90;;;;;;6214559;23;20167;-79
2023/09/21 21:07:21;;;;;;;6.23;3.77;;;19.10;99.90;;;;;;6159546;23;20195;-81
2023/09/21 21:09:53;;;;;;;7.23;3.73;;;19.10;99.90;;;;;;6157455;23;20167;-81
2023/09/21 21:12:22;;;;;;;5.43;3.80;;;19.10;99.90;;;;;;6133088;23;20179;-80
2023/09/21 21:14:56;;;;;;;6.23;3.70;;;19.00;99.90;;;;;;6156817;23;20389;-81
2023/09/21 21:17:28;;;;;;;7.33;4.07;;;19.00;99.90;;;;;;6158938;23;20600;-81
2023/09/21 21:20:03;;;;;;;5.77;3.93;;;19.00;99.90;;;;;;6157543;23;20196;-80
2023/09/21 21:22:35;;;;;;;8.13;4.10;;;18.90;99.90;;;;;;6156755;23;20188;-80
2023/09/21 21:25:23;;;;;;;6.70;4.10;;;18.90;99.90;;;;;;6156969;23;20171;-80
2023/09/21 21:28:01;;;;;;;13.70;5.23;;;18.90;99.90;;;;;;6183729;23;20182;-82
2023/09/21 21:30:29;;;;;;;8.10;3.97;;;18.90;99.90;;;;;;6156763;23;20199;-79
2023/09/21 21:32:59;;;;;;;6.73;3.83;;;18.80;99.90;;;;;;6183200;23;20546;-81
2023/09/21 21:35:35;;;;;;;11.43;4.80;;;18.80;99.90;;;;;;6158043;23;20183;-80
2023/09/21 21:38:10;;;;;;;5.30;3.97;;;18.80;99.90;;;;;;6184012;23;20445;-81
2023/09/21 21:40:41;;;;;;;8.00;4.10;;;18.70;99.90;;;;;;6156883;23;20192;-79
2023/09/21 21:43:09;;;;;;;12.70;4.77;;;18.70;99.90;;;;;;6183717;23;20168;-79
2023/09/21 21:45:36;;;;;;;6.73;4.00;;;18.60;99.90;;;;;;6156828;23;20186;-85
2023/09/21 21:48:08;;;;;;;9.30;4.40;;;18.70;99.90;;;;;;6157660;23;20670;-79
2023/09/21 22:07:49;;;;;;;7.60;4.20;;;18.60;99.90;;;;;;6212852;23;20543;-79
2023/09/21 22:10:20;;;;;;;5.97;4.07;;;18.50;99.90;;;;;;6187169;23;20174;-80
2023/09/21 22:13:05;;;;;;;8.87;4.57;;;18.50;99.90;;;;;;6163569;23;20175;-83
2023/09/21 22:16:11;;;;;;;9.03;4.30;;;18.60;99.90;;;;;;6189115;23;20223;-85
2023/09/21 22:19:06;;;;;;;8.87;4.13;;;18.20;99.90;;;;;;6034719;23;20178;-86
2023/09/21 22:21:56;;;;;;;5.93;4.13;;;18.50;99.90;;;;;;6079135;23;20200;-84
2023/09/21 22:25:03;;;;;;;7.90;4.23;;;18.30;99.90;;;;;;6063030;23;20185;-85
2023/09/21 22:27:44;;;;;;;7.80;4.10;;;18.10;99.90;;;;;;6038938;23;20178;-80
2023/09/21 22:30:30;;;;;;;7.47;4.37;;;18.30;99.90;;;;;;6041898;23;20268;-85
2023/09/21 22:33:10;;;;;;;7.73;4.43;;;18.30;99.90;;;;;;6039318;23;20174;-85
2023/09/21 22:35:54;;;;;;;8.47;4.77;;;18.10;99.90;;;;;;6018093;23;20370;-85
2023/09/21 22:39:13;;;;;;;5.97;3.90;;;18.20;99.90;;;;;;6131131;23;20180;-81
2023/09/21 22:41:56;;;;;;;7.77;4.20;;;18.20;99.90;;;;;;6132009;23;20192;-79
2023/09/21 22:44:27;;;;;;;9.27;4.67;;;18.20;99.90;;;;;;6187550;23;20637;-80
2023/09/21 22:46:59;;;;;;;9.73;4.37;;;18.20;99.90;;;;;;6068594;23;20180;-85
2023/09/21 22:49:29;;;;;;;6.70;4.30;;;18.20;99.90;;;;;;6068554;23;20270;-80
2023/09/21 22:51:57;;;;;;;7.00;4.30;;;18.00;99.90;;;;;;6091866;23;20193;-80
2023/09/21 22:54:32;;;;;;;24.60;6.50;;;18.10;99.90;;;;;;6091365;23;20173;-80
2023/09/21 22:57:05;;;;;;;15.23;5.00;;;18.10;99.90;;;;;;6093943;23;20181;-84
2023/09/21 22:59:37;;;;;;;7.23;4.17;;;18.20;99.90;;;;;;6094137;23;20190;-80
2023/09/21 23:02:07;;;;;;;7.63;4.27;;;18.10;99.90;;;;;;6046666;23;20169;-85
2023/09/21 23:04:39;;;;;;;7.80;4.30;;;18.10;99.90;;;;;;6105373;23;20217;-81
2023/09/21 23:07:12;;;;;;;7.17;4.17;;;18.10;99.90;;;;;;6182984;23;20731;-79
2023/09/21 23:10:11;;;;;;;6.57;4.13;;;18.10;99.90;;;;;;6158557;23;20607;-82
2023/09/21 23:13:02;;;;;;;8.27;4.33;;;18.00;99.90;;;;;;6162465;23;20163;-82
2023/09/21 23:15:56;;;;;;;7.60;4.27;;;18.10;99.90;;;;;;6157340;23;20603;-84
2023/09/21 23:18:58;;;;;;;5.77;3.87;;;17.90;99.90;;;;;;6162364;23;20736;-85
2023/09/21 23:21:38;;;;;;;5.97;3.90;;;18.00;99.90;;;;;;6160950;23;20257;-83
2023/09/21 23:24:16;;;;;;;6.37;3.93;;;17.90;99.90;;;;;;6160596;23;20167;-81
2023/09/21 23:27:04;;;;;;;6.43;4.10;;;17.80;99.90;;;;;;6182857;23;20172;-83
2023/09/21 23:29:33;;;;;;;9.83;4.07;;;17.90;99.90;;;;;;6184597;23;20174;-84
2023/09/21 23:32:01;;;;;;;6.50;3.90;;;17.90;99.90;;;;;;6159605;23;20178;-80
2023/09/21 23:34:30;;;;;;;7.40;4.03;;;17.90;99.90;;;;;;6185192;23;20595;-84
2023/09/21 23:36:58;;;;;;;6.80;3.70;;;17.90;99.90;;;;;;6185612;23;20196;-80
2023/09/21 23:39:26;;;;;;;7.70;3.70;;;17.80;99.90;;;;;;6183460;23;20250;-83
2023/09/21 23:41:54;;;;;;;9.03;4.40;;;17.80;99.90;;;;;;6183659;23;20178;-79
2023/09/21 23:44:25;;;;;;;6.57;3.90;;;17.60;99.90;;;;;;6184615;23;20226;-79
2023/09/21 23:46:54;;;;;;;8.33;3.80;;;17.80;99.90;;;;;;6182890;23;20171;-79
2023/09/21 23:49:27;;;;;;;9.63;4.20;;;17.80;99.90;;;;;;6185008;23;20580;-83
2023/09/21 23:51:55;;;;;;;9.03;4.13;;;17.70;99.90;;;;;;6182961;23;20184;-83
2023/09/21 23:54:23;;;;;;;7.17;3.93;;;17.80;99.90;;;;;;6184871;23;20167;-83
2023/09/21 23:56:52;;;;;;;12.53;4.63;;;17.70;99.90;;;;;;6184287;23;20655;-79
2023/09/21 23:59:23;;;;;;;9.40;4.73;;;17.70;99.90;;;;;;6184604;23;20167;-80
